sensor_id;sensor_type;location;lat;lon;timestamp;pressure;altitude;pressure_sealevel;temperature;humidity
5755;BME280;2902;42.130;24.732;2023-11-19T00:01:57;99278.47;;;7.26;66.78
5755;BME280;2902;42.130;24.732;2023-11-19T00:04:24;99276.81;;;7.25;66.70
5755;BME280;2902;42.130;24.732;2023-11-19T00:06:51;99274.53;;;7.22;67.10
5755;BME280;2902;42.130;24.732;2023-11-19T00:09:18;99273.06;;;7.34;66.91
5755;BME280;2902;42.130;24.732;2023-11-19T00:11:46;99283.19;;;7.30;66.57
5755;BME280;2902;42.130;24.732;2023-11-19T00:14:12;99277.91;;;7.30;66.43
5755;BME280;2902;42.130;24.732;2023-11-19T00:16:39;99281.47;;;7.23;66.44
5755;BME280;2902;42.130;24.732;2023-11-19T00:19:06;99280.44;;;7.24;66.98
5755;BME280;2902;42.130;24.732;2023-11-19T00:21:34;99287.38;;;7.25;67.12
5755;BME280;2902;42.130;24.732;2023-11-19T00:24:02;99269.72;;;7.25;67.49
5755;BME280;2902;42.130;24.732;2023-11-19T00:26:29;99269.88;;;7.24;67.96
5755;BME280;2902;42.130;24.732;2023-11-19T00:28:57;99277.47;;;7.27;67.83
5755;BME280;2902;42.130;24.732;2023-11-19T00:31:24;99279.34;;;7.18;68.34
5755;BME280;2902;42.130;24.732;2023-11-19T00:33:53;99294.59;;;7.31;68.38
5755;BME280;2902;42.130;24.732;2023-11-19T00:36:20;99291.78;;;7.32;67.95
5755;BME280;2902;42.130;24.732;2023-11-19T00:38:49;99288.03;;;7.27;68.09
5755;BME280;2902;42.130;24.732;2023-11-19T00:41:16;99306.78;;;7.32;67.27
5755;BME280;2902;42.130;24.732;2023-11-19T00:43:42;99304.06;;;7.40;67.43
5755;BME280;2902;42.130;24.732;2023-11-19T00:46:11;99292.56;;;7.33;66.67
5755;BME280;2902;42.130;24.732;2023-11-19T00:48:38;99300.22;;;7.28;68.07
5755;BME280;2902;42.130;24.732;2023-11-19T00:51:06;99311.16;;;7.39;67.20
5755;BME280;2902;42.130;24.732;2023-11-19T00:53:33;99311.47;;;7.44;66.56
5755;BME280;2902;42.130;24.732;2023-11-19T00:56:00;99296.50;;;7.37;67.12
5755;BME280;2902;42.130;24.732;2023-11-19T00:58:26;99285.81;;;7.16;67.72
5755;BME280;2902;42.130;24.732;2023-11-19T01:00:53;99305.59;;;7.20;68.04
5755;BME280;2902;42.130;24.732;2023-11-19T01:03:22;99309.50;;;7.24;67.92
5755;BME280;2902;42.130;24.732;2023-11-19T01:05:48;99313.84;;;7.17;67.99
5755;BME280;2902;42.130;24.732;2023-11-19T01:08:17;99314.97;;;7.22;68.07
5755;BME280;2902;42.130;24.732;2023-11-19T01:10:44;99305.31;;;7.15;67.67
5755;BME280;2902;42.130;24.732;2023-11-19T01:13:11;99311.88;;;7.19;68.59
5755;BME280;2902;42.130;24.732;2023-11-19T01:15:37;99318.75;;;7.05;68.46
5755;BME280;2902;42.130;24.732;2023-11-19T01:18:06;99309.81;;;7.06;68.98
5755;BME280;2902;42.130;24.732;2023-11-19T01:20:36;99311.28;;;7.09;68.87
5755;BME280;2902;42.130;24.732;2023-11-19T01:23:03;99303.00;;;7.12;68.95
5755;BME280;2902;42.130;24.732;2023-11-19T01:25:29;99303.28;;;7.17;68.41
5755;BME280;2902;42.130;24.732;2023-11-19T01:27:56;99308.97;;;7.14;68.71
5755;BME280;2902;42.130;24.732;2023-11-19T01:30:23;99307.66;;;7.10;69.37
5755;BME280;2902;42.130;24.732;2023-11-19T01:32:51;99314.78;;;7.24;68.15
5755;BME280;2902;42.130;24.732;2023-11-19T01:35:17;99311.13;;;7.25;68.47
5755;BME280;2902;42.130;24.732;2023-11-19T01:37:45;99319.88;;;7.11;68.96
5755;BME280;2902;42.130;24.732;2023-11-19T01:40:12;99315.91;;;7.29;68.29
5755;BME280;2902;42.130;24.732;2023-11-19T01:42:40;99323.94;;;7.36;68.32
5755;BME280;2902;42.130;24.732;2023-11-19T01:45:07;99312.81;;;7.26;67.95
5755;BME280;2902;42.130;24.732;2023-11-19T01:47:34;99320.81;;;7.18;68.35
5755;BME280;2902;42.130;24.732;2023-11-19T01:50:02;99310.75;;;7.13;68.00
5755;BME280;2902;42.130;24.732;2023-11-19T01:52:32;99316.03;;;7.13;68.30
5755;BME280;2902;42.130;24.732;2023-11-19T01:55:02;99311.66;;;7.06;69.21
5755;BME280;2902;42.130;24.732;2023-11-19T01:57:30;99305.19;;;7.08;69.03
5755;BME280;2902;42.130;24.732;2023-11-19T01:59:56;99318.50;;;7.15;68.93
5755;BME280;2902;42.130;24.732;2023-11-19T02:02:23;99333.34;;;7.16;68.83
5755;BME280;2902;42.130;24.732;2023-11-19T02:04:52;99320.31;;;7.14;68.76
5755;BME280;2902;42.130;24.732;2023-11-19T02:07:19;99336.28;;;7.21;69.36
5755;BME280;2902;42.130;24.732;2023-11-19T02:09:46;99337.72;;;7.23;68.43
5755;BME280;2902;42.130;24.732;2023-11-19T02:12:14;99334.63;;;7.20;69.11
5755;BME280;2902;42.130;24.732;2023-11-19T02:14:41;99326.19;;;7.24;68.60
5755;BME280;2902;42.130;24.732;2023-11-19T02:17:25;99329.00;;;7.23;68.66
5755;BME280;2902;42.130;24.732;2023-11-19T02:19:51;99313.16;;;7.23;68.51
5755;BME280;2902;42.130;24.732;2023-11-19T02:22:18;99309.50;;;7.24;69.19
5755;BME280;2902;42.130;24.732;2023-11-19T02:24:47;99317.84;;;7.13;69.19
5755;BME280;2902;42.130;24.732;2023-11-19T02:27:28;99331.78;;;7.07;69.46
5755;BME280;2902;42.130;24.732;2023-11-19T02:30:00;99335.78;;;7.03;69.60
5755;BME280;2902;42.130;24.732;2023-11-19T02:32:31;99337.06;;;7.07;69.90
5755;BME280;2902;42.130;24.732;2023-11-19T02:34:58;99339.09;;;6.97;70.30
5755;BME280;2902;42.130;24.732;2023-11-19T02:37:24;99350.03;;;6.94;69.86
5755;BME280;2902;42.130;24.732;2023-11-19T02:39:51;99351.75;;;6.87;71.15
5755;BME280;2902;42.130;24.732;2023-11-19T02:42:18;99343.47;;;6.90;70.71
5755;BME280;2902;42.130;24.732;2023-11-19T02:44:45;99332.59;;;6.85;71.31
5755;BME280;2902;42.130;24.732;2023-11-19T02:47:15;99337.75;;;6.78;71.10
5755;BME280;2902;42.130;24.732;2023-11-19T02:49:42;99349.31;;;6.77;71.78
5755;BME280;2902;42.130;24.732;2023-11-19T02:52:09;99353.88;;;6.91;71.29
5755;BME280;2902;42.130;24.732;2023-11-19T02:54:35;99343.81;;;6.87;71.12
5755;BME280;2902;42.130;24.732;2023-11-19T02:57:03;99351.91;;;6.85;71.64
5755;BME280;2902;42.130;24.732;2023-11-19T02:59:30;99353.84;;;6.69;71.68
5755;BME280;2902;42.130;24.732;2023-11-19T03:02:04;99350.50;;;6.75;71.75
5755;BME280;2902;42.130;24.732;2023-11-19T03:04:33;99338.75;;;6.77;71.45
5755;BME280;2902;42.130;24.732;2023-11-19T03:07:00;99345.94;;;6.69;71.87
5755;BME280;2902;42.130;24.732;2023-11-19T03:09:27;99331.13;;;6.60;72.28
5755;BME280;2902;42.130;24.732;2023-11-19T03:11:54;99333.13;;;6.58;72.63
5755;BME280;2902;42.130;24.732;2023-11-19T03:14:21;99319.22;;;6.64;72.43
5755;BME280;2902;42.130;24.732;2023-11-19T03:16:49;99322.56;;;6.58;71.69
5755;BME280;2902;42.130;24.732;2023-11-19T03:19:16;99320.81;;;6.50;71.96
5755;BME280;2902;42.130;24.732;2023-11-19T03:21:44;99330.50;;;6.58;72.11
5755;BME280;2902;42.130;24.732;2023-11-19T03:24:12;99335.94;;;6.56;71.29
5755;BME280;2902;42.130;24.732;2023-11-19T03:26:40;99338.78;;;6.47;72.13
5755;BME280;2902;42.130;24.732;2023-11-19T03:29:08;99337.56;;;6.57;71.72
5755;BME280;2902;42.130;24.732;2023-11-19T03:31:34;99342.72;;;6.51;71.45
5755;BME280;2902;42.130;24.732;2023-11-19T03:34:01;99340.75;;;6.53;71.61
5755;BME280;2902;42.130;24.732;2023-11-19T03:36:32;99345.38;;;6.51;71.54
5755;BME280;2902;42.130;24.732;2023-11-19T03:39:00;99343.44;;;6.45;71.71
5755;BME280;2902;42.130;24.732;2023-11-19T03:41:28;99340.75;;;6.53;70.67
5755;BME280;2902;42.130;24.732;2023-11-19T03:43:56;99337.94;;;6.54;70.74
5755;BME280;2902;42.130;24.732;2023-11-19T03:46:22;99348.13;;;6.57;70.20
5755;BME280;2902;42.130;24.732;2023-11-19T03:48:50;99341.56;;;6.53;70.56
5755;BME280;2902;42.130;24.732;2023-11-19T03:51:16;99344.97;;;6.62;70.12
5755;BME280;2902;42.130;24.732;2023-11-19T03:53:43;99346.31;;;6.58;70.47
5755;BME280;2902;42.130;24.732;2023-11-19T03:56:11;99336.41;;;6.60;69.61
5755;BME280;2902;42.130;24.732;2023-11-19T03:58:39;99347.91;;;6.67;68.55
5755;BME280;2902;42.130;24.732;2023-11-19T04:01:05;99328.47;;;6.60;68.94
5755;BME280;2902;42.130;24.732;2023-11-19T04:03:32;99346.56;;;6.71;69.01
5755;BME280;2902;42.130;24.732;2023-11-19T04:05:59;99357.78;;;6.73;69.19
5755;BME280;2902;42.130;24.732;2023-11-19T04:08:25;99348.53;;;6.77;69.08
5755;BME280;2902;42.130;24.732;2023-11-19T04:10:52;99359.06;;;6.77;68.24
5755;BME280;2902;42.130;24.732;2023-11-19T04:13:20;99359.06;;;6.77;68.70
5755;BME280;2902;42.130;24.732;2023-11-19T04:15:48;99361.78;;;6.69;68.43
5755;BME280;2902;42.130;24.732;2023-11-19T04:18:14;99363.19;;;6.79;68.34
5755;BME280;2902;42.130;24.732;2023-11-19T04:20:41;99364.66;;;6.82;68.27
5755;BME280;2902;42.130;24.732;2023-11-19T04:23:08;99358.13;;;6.70;69.04
5755;BME280;2902;42.130;24.732;2023-11-19T04:25:35;99372.31;;;6.69;69.25
5755;BME280;2902;42.130;24.732;2023-11-19T04:28:02;99369.84;;;6.67;70.14
5755;BME280;2902;42.130;24.732;2023-11-19T04:30:30;99369.09;;;6.51;71.10
5755;BME280;2902;42.130;24.732;2023-11-19T04:32:58;99374.06;;;6.54;70.96
5755;BME280;2902;42.130;24.732;2023-11-19T04:35:24;99369.81;;;6.45;71.50
5755;BME280;2902;42.130;24.732;2023-11-19T04:37:51;99369.81;;;6.45;70.94
5755;BME280;2902;42.130;24.732;2023-11-19T04:40:18;99359.25;;;6.45;70.59
5755;BME280;2902;42.130;24.732;2023-11-19T04:42:48;99371.81;;;6.35;70.49
5755;BME280;2902;42.130;24.732;2023-11-19T04:45:14;99374.84;;;6.32;70.25
5755;BME280;2902;42.130;24.732;2023-11-19T04:47:43;99375.75;;;6.39;69.96
5755;BME280;2902;42.130;24.732;2023-11-19T04:50:10;99374.47;;;6.35;69.95
5755;BME280;2902;42.130;24.732;2023-11-19T04:52:37;99376.16;;;6.28;70.46
5755;BME280;2902;42.130;24.732;2023-11-19T04:55:06;99385.06;;;6.27;70.32
5755;BME280;2902;42.130;24.732;2023-11-19T04:57:33;99375.66;;;6.24;70.26
5755;BME280;2902;42.130;24.732;2023-11-19T04:59:59;99378.31;;;6.24;69.70
5755;BME280;2902;42.130;24.732;2023-11-19T05:02:26;99369.25;;;6.19;70.35
5755;BME280;2902;42.130;24.732;2023-11-19T05:04:54;99381.34;;;6.13;70.61
5755;BME280;2902;42.130;24.732;2023-11-19T05:07:21;99376.88;;;6.14;70.65
5755;BME280;2902;42.130;24.732;2023-11-19T05:09:47;99376.34;;;6.26;69.88
5755;BME280;2902;42.130;24.732;2023-11-19T05:12:14;99373.03;;;6.24;70.53
5755;BME280;2902;42.130;24.732;2023-11-19T05:14:41;99377.00;;;6.20;70.72
5755;BME280;2902;42.130;24.732;2023-11-19T05:17:13;99362.19;;;6.19;70.51
5755;BME280;2902;42.130;24.732;2023-11-19T05:19:40;99372.44;;;6.14;70.73
5755;BME280;2902;42.130;24.732;2023-11-19T05:22:08;99386.75;;;6.20;70.49
5755;BME280;2902;42.130;24.732;2023-11-19T05:24:35;99374.22;;;6.14;70.56
5755;BME280;2902;42.130;24.732;2023-11-19T05:27:02;99393.03;;;6.11;70.51
5755;BME280;2902;42.130;24.732;2023-11-19T05:29:29;99399.97;;;6.12;70.81
5755;BME280;2902;42.130;24.732;2023-11-19T05:31:56;99403.22;;;6.14;70.35
5755;BME280;2902;42.130;24.732;2023-11-19T05:34:22;99396.97;;;6.15;70.83
5755;BME280;2902;42.130;24.732;2023-11-19T05:36:50;99398.81;;;6.06;70.51
5755;BME280;2902;42.130;24.732;2023-11-19T05:39:18;99399.63;;;6.07;70.77
5755;BME280;2902;42.130;24.732;2023-11-19T05:41:45;99402.63;;;6.04;70.99
5755;BME280;2902;42.130;24.732;2023-11-19T05:44:12;99420.09;;;5.97;70.68
5755;BME280;2902;42.130;24.732;2023-11-19T05:46:38;99416.63;;;5.96;70.98
5755;BME280;2902;42.130;24.732;2023-11-19T05:49:08;99418.78;;;6.01;70.49
5755;BME280;2902;42.130;24.732;2023-11-19T05:51:36;99417.78;;;5.94;70.76
5755;BME280;2902;42.130;24.732;2023-11-19T05:54:04;99415.97;;;6.02;70.28
5755;BME280;2902;42.130;24.732;2023-11-19T05:56:33;99423.72;;;6.04;70.10
5755;BME280;2902;42.130;24.732;2023-11-19T05:59:00;99402.28;;;5.99;70.37
5755;BME280;2902;42.130;24.732;2023-11-19T06:01:28;99417.09;;;6.16;70.06
5755;BME280;2902;42.130;24.732;2023-11-19T06:03:55;99415.03;;;6.34;69.05
5755;BME280;2902;42.130;24.732;2023-11-19T06:06:22;99414.38;;;6.62;68.69
5755;BME280;2902;42.130;24.732;2023-11-19T06:08:49;99413.09;;;6.89;67.61
5755;BME280;2902;42.130;24.732;2023-11-19T06:11:16;99429.66;;;7.05;66.73
5755;BME280;2902;42.130;24.732;2023-11-19T06:13:47;99433.84;;;7.22;66.50
5755;BME280;2902;42.130;24.732;2023-11-19T06:16:15;99435.97;;;7.27;66.28
5755;BME280;2902;42.130;24.732;2023-11-19T06:18:42;99446.16;;;7.30;66.14
5755;BME280;2902;42.130;24.732;2023-11-19T06:21:09;99453.31;;;7.44;65.72
5755;BME280;2902;42.130;24.732;2023-11-19T06:23:36;99460.25;;;7.45;65.46
5755;BME280;2902;42.130;24.732;2023-11-19T06:26:02;99471.22;;;7.56;64.86
5755;BME280;2902;42.130;24.732;2023-11-19T06:28:30;99464.34;;;7.70;65.14
5755;BME280;2902;42.130;24.732;2023-11-19T06:30:58;99476.34;;;7.95;64.20
5755;BME280;2902;42.130;24.732;2023-11-19T06:33:25;99469.75;;;7.91;63.96
5755;BME280;2902;42.130;24.732;2023-11-19T06:35:52;99477.19;;;8.10;63.76
5755;BME280;2902;42.130;24.732;2023-11-19T06:38:19;99481.75;;;8.16;63.01
5755;BME280;2902;42.130;24.732;2023-11-19T06:40:46;99481.16;;;8.57;63.98
5755;BME280;2902;42.130;24.732;2023-11-19T06:43:13;99495.13;;;8.66;62.23
5755;BME280;2902;42.130;24.732;2023-11-19T06:45:40;99492.94;;;8.69;60.60
5755;BME280;2902;42.130;24.732;2023-11-19T06:48:09;99501.19;;;8.95;59.58
5755;BME280;2902;42.130;24.732;2023-11-19T06:50:36;99501.28;;;9.02;59.25
5755;BME280;2902;42.130;24.732;2023-11-19T06:53:02;99502.06;;;9.17;58.86
5755;BME280;2902;42.130;24.732;2023-11-19T06:55:30;99495.97;;;9.02;59.17
5755;BME280;2902;42.130;24.732;2023-11-19T06:57:59;99491.00;;;8.92;59.00
5755;BME280;2902;42.130;24.732;2023-11-19T07:00:27;99510.06;;;8.88;59.68
5755;BME280;2902;42.130;24.732;2023-11-19T07:02:54;99510.44;;;8.85;58.87
5755;BME280;2902;42.130;24.732;2023-11-19T07:05:22;99524.16;;;8.74;59.49
5755;BME280;2902;42.130;24.732;2023-11-19T07:07:49;99521.69;;;8.87;58.60
5755;BME280;2902;42.130;24.732;2023-11-19T07:10:16;99511.66;;;9.18;57.26
5755;BME280;2902;42.130;24.732;2023-11-19T07:12:43;99504.75;;;9.38;56.65
5755;BME280;2902;42.130;24.732;2023-11-19T07:15:10;99482.38;;;9.26;57.57
5755;BME280;2902;42.130;24.732;2023-11-19T07:17:38;99493.16;;;9.39;56.95
5755;BME280;2902;42.130;24.732;2023-11-19T07:20:06;99483.53;;;9.17;56.84
5755;BME280;2902;42.130;24.732;2023-11-19T07:22:34;99475.31;;;9.12;58.23
5755;BME280;2902;42.130;24.732;2023-11-19T07:25:01;99463.97;;;9.18;59.12
5755;BME280;2902;42.130;24.732;2023-11-19T07:27:27;99472.31;;;9.15;58.72
5755;BME280;2902;42.130;24.732;2023-11-19T07:29:54;99498.28;;;9.26;57.68
5755;BME280;2902;42.130;24.732;2023-11-19T07:32:21;99513.84;;;9.29;57.27
5755;BME280;2902;42.130;24.732;2023-11-19T07:34:48;99532.47;;;9.56;55.96
5755;BME280;2902;42.130;24.732;2023-11-19T07:37:14;99541.50;;;9.83;55.75
5755;BME280;2902;42.130;24.732;2023-11-19T07:39:43;99543.47;;;9.95;53.85
5755;BME280;2902;42.130;24.732;2023-11-19T07:42:10;99555.69;;;10.11;53.42
5755;BME280;2902;42.130;24.732;2023-11-19T07:44:37;99554.19;;;10.29;53.29
5755;BME280;2902;42.130;24.732;2023-11-19T07:47:04;99546.94;;;10.72;52.11
5755;BME280;2902;42.130;24.732;2023-11-19T07:49:31;99544.72;;;10.82;51.90
5755;BME280;2902;42.130;24.732;2023-11-19T07:51:57;99552.81;;;10.95;50.45
5755;BME280;2902;42.130;24.732;2023-11-19T07:54:24;99547.16;;;10.43;51.11
5755;BME280;2902;42.130;24.732;2023-11-19T07:56:52;99550.78;;;10.35;51.59
5755;BME280;2902;42.130;24.732;2023-11-19T07:59:19;99543.75;;;10.28;51.63
5755;BME280;2902;42.130;24.732;2023-11-19T08:01:46;99559.19;;;10.39;51.28
5755;BME280;2902;42.130;24.732;2023-11-19T08:04:13;99554.63;;;10.60;51.27
5755;BME280;2902;42.130;24.732;2023-11-19T08:06:40;99555.13;;;10.77;50.89
5755;BME280;2902;42.130;24.732;2023-11-19T08:09:06;99555.78;;;10.51;50.75
5755;BME280;2902;42.130;24.732;2023-11-19T08:11:39;99568.41;;;10.43;50.56
5755;BME280;2902;42.130;24.732;2023-11-19T08:14:07;99565.13;;;10.68;50.01
5755;BME280;2902;42.130;24.732;2023-11-19T08:16:33;99554.56;;;10.81;49.69
5755;BME280;2902;42.130;24.732;2023-11-19T08:19:01;99554.81;;;10.93;49.94
5755;BME280;2902;42.130;24.732;2023-11-19T08:21:28;99568.19;;;11.13;50.00
5755;BME280;2902;42.130;24.732;2023-11-19T08:23:55;99584.03;;;11.34;48.64
5755;BME280;2902;42.130;24.732;2023-11-19T08:26:22;99583.97;;;10.80;49.99
5755;BME280;2902;42.130;24.732;2023-11-19T08:28:48;99591.28;;;10.44;50.80
5755;BME280;2902;42.130;24.732;2023-11-19T08:31:16;99578.34;;;10.13;51.29
5755;BME280;2902;42.130;24.732;2023-11-19T08:33:43;99574.31;;;10.17;52.52
5755;BME280;2902;42.130;24.732;2023-11-19T08:36:15;99584.19;;;9.67;53.53
5755;BME280;2902;42.130;24.732;2023-11-19T08:38:42;99591.00;;;9.55;54.28
5755;BME280;2902;42.130;24.732;2023-11-19T08:41:09;99602.53;;;9.83;52.90
5755;BME280;2902;42.130;24.732;2023-11-19T08:43:35;99583.34;;;10.02;52.54
5755;BME280;2902;42.130;24.732;2023-11-19T08:46:03;99587.53;;;10.11;51.72
5755;BME280;2902;42.130;24.732;2023-11-19T08:48:32;99586.38;;;10.20;51.85
5755;BME280;2902;42.130;24.732;2023-11-19T08:50:58;99593.91;;;10.16;51.89
5755;BME280;2902;42.130;24.732;2023-11-19T08:53:25;99586.66;;;10.25;51.43
5755;BME280;2902;42.130;24.732;2023-11-19T08:55:52;99598.22;;;10.45;51.25
5755;BME280;2902;42.130;24.732;2023-11-19T08:58:18;99605.19;;;10.73;49.93
5755;BME280;2902;42.130;24.732;2023-11-19T09:00:45;99603.56;;;10.72;49.35
5755;BME280;2902;42.130;24.732;2023-11-19T09:03:12;99603.69;;;10.92;48.82
5755;BME280;2902;42.130;24.732;2023-11-19T09:05:41;99596.19;;;11.08;47.73
5755;BME280;2902;42.130;24.732;2023-11-19T09:08:07;99590.84;;;11.02;48.11
5755;BME280;2902;42.130;24.732;2023-11-19T09:10:34;99595.84;;;10.84;47.79
5755;BME280;2902;42.130;24.732;2023-11-19T09:13:01;99591.44;;;10.70;47.87
5755;BME280;2902;42.130;24.732;2023-11-19T09:15:29;99585.44;;;10.89;48.33
5755;BME280;2902;42.130;24.732;2023-11-19T09:17:55;99588.66;;;10.78;47.53
5755;BME280;2902;42.130;24.732;2023-11-19T09:20:22;99572.00;;;10.97;47.67
5755;BME280;2902;42.130;24.732;2023-11-19T09:22:50;99573.66;;;10.98;47.96
5755;BME280;2902;42.130;24.732;2023-11-19T09:25:17;99565.94;;;11.10;48.20
5755;BME280;2902;42.130;24.732;2023-11-19T09:27:44;99592.06;;;11.40;47.28
5755;BME280;2902;42.130;24.732;2023-11-19T09:30:12;99593.91;;;11.46;46.02
5755;BME280;2902;42.130;24.732;2023-11-19T09:32:39;99604.63;;;11.12;45.77
5755;BME280;2902;42.130;24.732;2023-11-19T09:35:06;99606.50;;;11.25;46.47
5755;BME280;2902;42.130;24.732;2023-11-19T09:37:33;99592.94;;;11.13;46.80
5755;BME280;2902;42.130;24.732;2023-11-19T09:40:01;99585.53;;;11.43;46.45
5755;BME280;2902;42.130;24.732;2023-11-19T09:42:27;99562.81;;;11.40;45.64
5755;BME280;2902;42.130;24.732;2023-11-19T09:44:56;99579.84;;;11.12;46.69
5755;BME280;2902;42.130;24.732;2023-11-19T09:47:23;99553.28;;;11.18;46.19
5755;BME280;2902;42.130;24.732;2023-11-19T09:49:52;99560.38;;;11.45;48.39
5755;BME280;2902;42.130;24.732;2023-11-19T09:52:19;99576.81;;;11.68;45.61
5755;BME280;2902;42.130;24.732;2023-11-19T09:54:46;99579.28;;;11.76;45.56
5755;BME280;2902;42.130;24.732;2023-11-19T09:57:16;99592.41;;;11.84;45.41
5755;BME280;2902;42.130;24.732;2023-11-19T09:59:44;99594.84;;;11.66;45.09
5755;BME280;2902;42.130;24.732;2023-11-19T10:02:12;99603.66;;;11.33;45.43
5755;BME280;2902;42.130;24.732;2023-11-19T10:04:39;99616.38;;;11.37;45.66
5755;BME280;2902;42.130;24.732;2023-11-19T10:07:09;99609.13;;;11.18;45.96
5755;BME280;2902;42.130;24.732;2023-11-19T10:09:39;99599.00;;;11.35;45.91
5755;BME280;2902;42.130;24.732;2023-11-19T10:12:06;99582.72;;;11.57;46.04
5755;BME280;2902;42.130;24.732;2023-11-19T10:14:37;99591.59;;;11.77;45.03
5755;BME280;2902;42.130;24.732;2023-11-19T10:17:07;99587.91;;;11.78;45.44
5755;BME280;2902;42.130;24.732;2023-11-19T10:19:34;99582.25;;;11.47;44.66
5755;BME280;2902;42.130;24.732;2023-11-19T10:22:04;99582.28;;;11.54;44.82
5755;BME280;2902;42.130;24.732;2023-11-19T10:24:32;99587.88;;;11.65;44.96
5755;BME280;2902;42.130;24.732;2023-11-19T10:26:59;99583.22;;;11.27;45.14
5755;BME280;2902;42.130;24.732;2023-11-19T10:29:26;99581.50;;;11.13;45.75
5755;BME280;2902;42.130;24.732;2023-11-19T10:31:58;99570.81;;;11.06;45.85
5755;BME280;2902;42.130;24.732;2023-11-19T10:34:27;99561.00;;;11.00;46.37
5755;BME280;2902;42.130;24.732;2023-11-19T10:36:55;99566.81;;;11.23;46.03
5755;BME280;2902;42.130;24.732;2023-11-19T10:39:21;99545.38;;;10.84;46.46
5755;BME280;2902;42.130;24.732;2023-11-19T10:41:50;99541.66;;;10.78;46.22
5755;BME280;2902;42.130;24.732;2023-11-19T10:44:31;99535.03;;;10.61;46.54
5755;BME280;2902;42.130;24.732;2023-11-19T10:47:05;99536.31;;;10.72;46.77
5755;BME280;2902;42.130;24.732;2023-11-19T10:49:32;99509.81;;;10.51;47.65
5755;BME280;2902;42.130;24.732;2023-11-19T10:52:01;99531.84;;;10.79;47.25
5755;BME280;2902;42.130;24.732;2023-11-19T10:54:30;99541.66;;;10.78;46.67
5755;BME280;2902;42.130;24.732;2023-11-19T10:56:58;99550.75;;;10.97;46.04
5755;BME280;2902;42.130;24.732;2023-11-19T10:59:28;99541.25;;;10.75;46.69
5755;BME280;2902;42.130;24.732;2023-11-19T11:01:56;99522.59;;;10.68;46.53
5755;BME280;2902;42.130;24.732;2023-11-19T11:04:25;99519.13;;;10.68;46.73
5755;BME280;2902;42.130;24.732;2023-11-19T11:06:54;99525.97;;;10.90;46.17
5755;BME280;2902;42.130;24.732;2023-11-19T11:09:23;99521.91;;;10.94;46.14
5755;BME280;2902;42.130;24.732;2023-11-19T11:11:50;99534.34;;;10.87;46.49
5755;BME280;2902;42.130;24.732;2023-11-19T11:14:18;99531.28;;;10.90;46.79
5755;BME280;2902;42.130;24.732;2023-11-19T11:16:48;99529.09;;;11.00;46.38
5755;BME280;2902;42.130;24.732;2023-11-19T11:19:16;99537.38;;;11.25;45.96
5755;BME280;2902;42.130;24.732;2023-11-19T11:21:49;99538.66;;;11.42;45.67
5755;BME280;2902;42.130;24.732;2023-11-19T11:24:28;99525.78;;;11.39;45.08
5755;BME280;2902;42.130;24.732;2023-11-19T11:27:40;99514.09;;;11.33;45.18
5755;BME280;2902;42.130;24.732;2023-11-19T11:30:19;99523.59;;;11.02;45.71
5755;BME280;2902;42.130;24.732;2023-11-19T11:32:53;99517.78;;;10.85;46.72
5755;BME280;2902;42.130;24.732;2023-11-19T11:35:30;99509.84;;;10.91;46.84
5755;BME280;2902;42.130;24.732;2023-11-19T11:38:04;99502.47;;;10.87;46.52
5755;BME280;2902;42.130;24.732;2023-11-19T11:40:33;99479.84;;;11.04;45.74
5755;BME280;2902;42.130;24.732;2023-11-19T11:43:01;99469.66;;;11.14;45.64
5755;BME280;2902;42.130;24.732;2023-11-19T11:45:39;99481.25;;;10.93;46.04
5755;BME280;2902;42.130;24.732;2023-11-19T11:48:12;99476.75;;;11.00;45.87
5755;BME280;2902;42.130;24.732;2023-11-19T11:50:50;99465.38;;;11.26;45.34
5755;BME280;2902;42.130;24.732;2023-11-19T11:53:19;99455.59;;;11.40;45.32
5755;BME280;2902;42.130;24.732;2023-11-19T11:55:58;99458.06;;;11.54;44.51
5755;BME280;2902;42.130;24.732;2023-11-19T11:58:35;99471.22;;;11.62;44.45
5755;BME280;2902;42.130;24.732;2023-11-19T12:01:04;99456.66;;;11.58;44.39
5755;BME280;2902;42.130;24.732;2023-11-19T12:03:34;99436.38;;;11.44;45.16
5755;BME280;2902;42.130;24.732;2023-11-19T12:06:01;99439.44;;;11.54;44.54
5755;BME280;2902;42.130;24.732;2023-11-19T12:08:29;99435.16;;;11.53;44.65
5755;BME280;2902;42.130;24.732;2023-11-19T12:10:58;99442.69;;;11.43;45.11
5755;BME280;2902;42.130;24.732;2023-11-19T12:13:42;99450.59;;;11.04;46.19
5755;BME280;2902;42.130;24.732;2023-11-19T12:16:10;99451.38;;;10.91;46.70
5755;BME280;2902;42.130;24.732;2023-11-19T12:18:39;99448.97;;;11.03;47.16
5755;BME280;2902;42.130;24.732;2023-11-19T12:21:07;99446.66;;;10.87;47.51
5755;BME280;2902;42.130;24.732;2023-11-19T12:23:45;99447.66;;;10.79;47.98
5755;BME280;2902;42.130;24.732;2023-11-19T12:26:35;99437.66;;;10.88;47.89
5755;BME280;2902;42.130;24.732;2023-11-19T12:29:02;99439.72;;;10.92;47.59
5755;BME280;2902;42.130;24.732;2023-11-19T12:31:33;99441.00;;;11.03;47.65
5755;BME280;2902;42.130;24.732;2023-11-19T12:34:08;99432.06;;;10.70;47.98
5755;BME280;2902;42.130;24.732;2023-11-19T12:36:38;99420.66;;;10.76;48.43
5755;BME280;2902;42.130;24.732;2023-11-19T12:39:07;99419.50;;;10.98;48.05
5755;BME280;2902;42.130;24.732;2023-11-19T12:41:49;99419.28;;;10.93;48.60
5755;BME280;2902;42.130;24.732;2023-11-19T12:44:16;99417.53;;;11.26;47.94
5755;BME280;2902;42.130;24.732;2023-11-19T12:46:42;99417.13;;;11.29;47.46
5755;BME280;2902;42.130;24.732;2023-11-19T12:49:11;99414.97;;;10.79;47.99
5755;BME280;2902;42.130;24.732;2023-11-19T12:51:38;99407.78;;;10.73;48.90
5755;BME280;2902;42.130;24.732;2023-11-19T12:54:04;99404.28;;;10.66;49.37
5755;BME280;2902;42.130;24.732;2023-11-19T12:56:33;99399.00;;;10.72;49.80
5755;BME280;2902;42.130;24.732;2023-11-19T12:59:10;99409.22;;;10.82;49.00
5755;BME280;2902;42.130;24.732;2023-11-19T13:01:38;99407.78;;;10.79;49.36
5755;BME280;2902;42.130;24.732;2023-11-19T13:04:16;99408.47;;;10.94;49.08
5755;BME280;2902;42.130;24.732;2023-11-19T13:06:45;99412.50;;;10.84;48.58
5755;BME280;2902;42.130;24.732;2023-11-19T13:09:21;99410.63;;;10.78;49.31
5755;BME280;2902;42.130;24.732;2023-11-19T13:11:50;99407.16;;;10.71;49.65
5755;BME280;2902;42.130;24.732;2023-11-19T13:14:17;99402.59;;;10.58;49.56
5755;BME280;2902;42.130;24.732;2023-11-19T13:16:44;99409.53;;;10.53;50.17
5755;BME280;2902;42.130;24.732;2023-11-19T13:19:12;99392.44;;;10.62;49.82
5755;BME280;2902;42.130;24.732;2023-11-19T13:21:39;99390.78;;;10.67;49.77
5755;BME280;2902;42.130;24.732;2023-11-19T13:24:06;99388.56;;;10.64;50.05